sensor_id;sensor_type;location;lat;lon;timestamp;temperature;humidity
12438;DHT22;6283;51.330;12.374;2022-09-27T00:01:10;12.90;1.00
12438;DHT22;6283;51.330;12.374;2022-09-27T00:03:36;13.00;1.00
12438;DHT22;6283;51.330;12.374;2022-09-27T00:06:23;13.00;1.00
12438;DHT22;6283;51.330;12.374;2022-09-27T00:08:49;13.00;1.00
12438;DHT22;6283;51.330;12.374;2022-09-27T00:11:23;13.10;1.00
12438;DHT22;6283;51.330;12.374;2022-09-27T00:13:50;12.80;1.00
12438;DHT22;6283;51.330;12.374;2022-09-27T00:16:16;12.90;1.00
12438;DHT22;6283;51.330;12.374;2022-09-27T00:18:41;13.30;1.00
12438;DHT22;6283;51.330;12.374;2022-09-27T00:21:09;12.90;1.00
12438;DHT22;6283;51.330;12.374;2022-09-27T00:23:35;12.90;1.00
12438;DHT22;6283;51.330;12.374;2022-09-27T00:26:02;13.20;1.00
12438;DHT22;6283;51.330;12.374;2022-09-27T00:28:28;13.10;1.00
12438;DHT22;6283;51.330;12.374;2022-09-27T00:30:53;13.20;1.00
12438;DHT22;6283;51.330;12.374;2022-09-27T00:33:19;13.00;1.00
12438;DHT22;6283;51.330;12.374;2022-09-27T00:35:45;13.20;1.00
12438;DHT22;6283;51.330;12.374;2022-09-27T00:38:11;13.20;1.00
12438;DHT22;6283;51.330;12.374;2022-09-27T00:40:37;12.90;1.00
12438;DHT22;6283;51.330;12.374;2022-09-27T00:43:18;13.00;1.00
12438;DHT22;6283;51.330;12.374;2022-09-27T00:45:48;12.70;1.00
12438;DHT22;6283;51.330;12.374;2022-09-27T00:48:18;13.10;1.00
12438;DHT22;6283;51.330;12.374;2022-09-27T00:50:48;13.00;1.00
12438;DHT22;6283;51.330;12.374;2022-09-27T00:53:23;12.70;1.00
12438;DHT22;6283;51.330;12.374;2022-09-27T00:55:56;12.70;1.00
12438;DHT22;6283;51.330;12.374;2022-09-27T00:58:28;12.70;1.00
12438;DHT22;6283;51.330;12.374;2022-09-27T01:01:01;12.70;1.00
12438;DHT22;6283;51.330;12.374;2022-09-27T01:03:36;12.70;1.00
12438;DHT22;6283;51.330;12.374;2022-09-27T01:06:04;12.90;1.00
12438;DHT22;6283;51.330;12.374;2022-09-27T01:08:30;12.70;1.00
12438;DHT22;6283;51.330;12.374;2022-09-27T01:16:22;12.50;1.00
12438;DHT22;6283;51.330;12.374;2022-09-27T01:22:28;12.60;1.00
12438;DHT22;6283;51.330;12.374;2022-09-27T01:31:21;12.80;1.00
12438;DHT22;6283;51.330;12.374;2022-09-27T01:37:02;12.80;1.00
12438;DHT22;6283;51.330;12.374;2022-09-27T01:39:36;12.80;1.00
12438;DHT22;6283;51.330;12.374;2022-09-27T01:42:17;12.50;1.00
12438;DHT22;6283;51.330;12.374;2022-09-27T01:44:57;12.60;1.00
12438;DHT22;6283;51.330;12.374;2022-09-27T01:47:42;12.50;1.00
12438;DHT22;6283;51.330;12.374;2022-09-27T01:50:19;12.60;1.00
12438;DHT22;6283;51.330;12.374;2022-09-27T01:52:52;12.60;1.00
12438;DHT22;6283;51.330;12.374;2022-09-27T01:55:20;12.60;1.00
12438;DHT22;6283;51.330;12.374;2022-09-27T01:57:54;12.60;1.00
12438;DHT22;6283;51.330;12.374;2022-09-27T02:00:22;12.60;1.00
12438;DHT22;6283;51.330;12.374;2022-09-27T02:02:49;12.80;1.00
12438;DHT22;6283;51.330;12.374;2022-09-27T02:05:19;12.80;1.00
12438;DHT22;6283;51.330;12.374;2022-09-27T02:10:21;12.70;1.00
12438;DHT22;6283;51.330;12.374;2022-09-27T02:12:59;12.80;1.00
12438;DHT22;6283;51.330;12.374;2022-09-27T02:15:32;12.80;1.00
12438;DHT22;6283;51.330;12.374;2022-09-27T02:18:16;12.90;1.00
12438;DHT22;6283;51.330;12.374;2022-09-27T02:20:55;12.60;1.00
12438;DHT22;6283;51.330;12.374;2022-09-27T02:23:30;12.60;1.00
12438;DHT22;6283;51.330;12.374;2022-09-27T02:26:23;12.80;1.00
12438;DHT22;6283;51.330;12.374;2022-09-27T02:28:56;12.80;1.00
12438;DHT22;6283;51.330;12.374;2022-09-27T02:31:22;12.70;1.00
12438;DHT22;6283;51.330;12.374;2022-09-27T02:34:01;12.70;1.00
12438;DHT22;6283;51.330;12.374;2022-09-27T02:36:28;12.50;1.00
12438;DHT22;6283;51.330;12.374;2022-09-27T02:38:54;12.80;1.00
12438;DHT22;6283;51.330;12.374;2022-09-27T02:41:22;12.80;1.00
12438;DHT22;6283;51.330;12.374;2022-09-27T02:43:52;12.50;1.00
12438;DHT22;6283;51.330;12.374;2022-09-27T02:52:33;12.70;1.00
12438;DHT22;6283;51.330;12.374;2022-09-27T02:55:34;12.70;1.00
12438;DHT22;6283;51.330;12.374;2022-09-27T03:01:37;12.50;1.00
12438;DHT22;6283;51.330;12.374;2022-09-27T03:03:52;12.70;1.00
12438;DHT22;6283;51.330;12.374;2022-09-27T03:06:21;12.40;1.00
12438;DHT22;6283;51.330;12.374;2022-09-27T03:08:48;12.60;1.00
12438;DHT22;6283;51.330;12.374;2022-09-27T03:11:14;12.80;1.00
12438;DHT22;6283;51.330;12.374;2022-09-27T03:13:40;12.50;1.00
12438;DHT22;6283;51.330;12.374;2022-09-27T03:16:06;12.50;1.00
12438;DHT22;6283;51.330;12.374;2022-09-27T03:18:32;12.50;1.00
12438;DHT22;6283;51.330;12.374;2022-09-27T03:20:58;12.40;1.00
12438;DHT22;6283;51.330;12.374;2022-09-27T03:23:24;12.50;1.00
12438;DHT22;6283;51.330;12.374;2022-09-27T03:25:49;12.50;1.00
12438;DHT22;6283;51.330;12.374;2022-09-27T03:28:16;12.50;1.00
12438;DHT22;6283;51.330;12.374;2022-09-27T03:30:44;12.30;1.00
12438;DHT22;6283;51.330;12.374;2022-09-27T03:33:10;12.30;1.00
12438;DHT22;6283;51.330;12.374;2022-09-27T03:35:35;12.40;1.00
12438;DHT22;6283;51.330;12.374;2022-09-27T03:38:02;12.40;1.00
12438;DHT22;6283;51.330;12.374;2022-09-27T03:40:27;12.20;1.00
12438;DHT22;6283;51.330;12.374;2022-09-27T03:42:53;12.30;1.00
12438;DHT22;6283;51.330;12.374;2022-09-27T03:45:19;12.20;1.00
12438;DHT22;6283;51.330;12.374;2022-09-27T03:47:45;12.00;1.00
12438;DHT22;6283;51.330;12.374;2022-09-27T03:50:11;12.20;1.00
12438;DHT22;6283;51.330;12.374;2022-09-27T03:52:37;12.30;1.00
12438;DHT22;6283;51.330;12.374;2022-09-27T03:55:03;12.00;1.00
12438;DHT22;6283;51.330;12.374;2022-09-27T03:57:29;12.00;1.00
12438;DHT22;6283;51.330;12.374;2022-09-27T03:59:56;12.00;1.00
12438;DHT22;6283;51.330;12.374;2022-09-27T04:02:24;11.80;1.00
12438;DHT22;6283;51.330;12.374;2022-09-27T04:04:50;11.80;1.00
12438;DHT22;6283;51.330;12.374;2022-09-27T04:07:16;11.70;1.00
12438;DHT22;6283;51.330;12.374;2022-09-27T04:09:42;11.70;1.00
12438;DHT22;6283;51.330;12.374;2022-09-27T04:12:09;11.80;1.00
12438;DHT22;6283;51.330;12.374;2022-09-27T04:14:34;11.60;1.00
12438;DHT22;6283;51.330;12.374;2022-09-27T04:17:00;11.50;1.00
12438;DHT22;6283;51.330;12.374;2022-09-27T04:19:26;11.60;1.00
12438;DHT22;6283;51.330;12.374;2022-09-27T04:21:51;11.70;1.00
12438;DHT22;6283;51.330;12.374;2022-09-27T04:24:17;11.50;1.00
12438;DHT22;6283;51.330;12.374;2022-09-27T04:26:42;11.50;1.00
12438;DHT22;6283;51.330;12.374;2022-09-27T04:29:08;11.60;1.00
12438;DHT22;6283;51.330;12.374;2022-09-27T04:31:35;11.50;1.00
12438;DHT22;6283;51.330;12.374;2022-09-27T04:34:01;11.40;1.00
12438;DHT22;6283;51.330;12.374;2022-09-27T04:36:27;11.50;1.00
12438;DHT22;6283;51.330;12.374;2022-09-27T04:38:57;11.40;1.00
12438;DHT22;6283;51.330;12.374;2022-09-27T04:41:23;11.40;1.00
12438;DHT22;6283;51.330;12.374;2022-09-27T04:43:50;11.70;1.00
12438;DHT22;6283;51.330;12.374;2022-09-27T04:46:16;11.60;1.00
12438;DHT22;6283;51.330;12.374;2022-09-27T04:48:42;11.50;1.00
12438;DHT22;6283;51.330;12.374;2022-09-27T04:51:08;11.50;1.00
12438;DHT22;6283;51.330;12.374;2022-09-27T04:53:35;11.40;1.00
12438;DHT22;6283;51.330;12.374;2022-09-27T04:56:00;11.50;1.00
12438;DHT22;6283;51.330;12.374;2022-09-27T04:58:31;11.30;1.00
12438;DHT22;6283;51.330;12.374;2022-09-27T05:00:58;11.30;1.00
12438;DHT22;6283;51.330;12.374;2022-09-27T05:03:24;11.40;1.00
12438;DHT22;6283;51.330;12.374;2022-09-27T05:05:50;11.50;1.00
12438;DHT22;6283;51.330;12.374;2022-09-27T05:08:15;11.50;1.00
12438;DHT22;6283;51.330;12.374;2022-09-27T05:10:41;11.40;1.00
12438;DHT22;6283;51.330;12.374;2022-09-27T05:13:06;11.60;1.00
12438;DHT22;6283;51.330;12.374;2022-09-27T05:15:32;11.30;1.00
12438;DHT22;6283;51.330;12.374;2022-09-27T05:17:58;11.50;1.00
12438;DHT22;6283;51.330;12.374;2022-09-27T05:20:24;11.40;1.00
12438;DHT22;6283;51.330;12.374;2022-09-27T05:22:51;11.30;1.00
12438;DHT22;6283;51.330;12.374;2022-09-27T05:25:17;11.50;1.00
12438;DHT22;6283;51.330;12.374;2022-09-27T05:27:43;11.50;1.00
12438;DHT22;6283;51.330;12.374;2022-09-27T05:30:10;11.50;1.00
12438;DHT22;6283;51.330;12.374;2022-09-27T05:32:39;11.60;1.00
12438;DHT22;6283;51.330;12.374;2022-09-27T05:35:06;11.40;1.00
12438;DHT22;6283;51.330;12.374;2022-09-27T05:37:32;11.60;1.00
12438;DHT22;6283;51.330;12.374;2022-09-27T05:39:58;11.30;1.00
12438;DHT22;6283;51.330;12.374;2022-09-27T05:42:24;11.40;1.00
12438;DHT22;6283;51.330;12.374;2022-09-27T05:44:49;11.50;1.00
12438;DHT22;6283;51.330;12.374;2022-09-27T05:47:15;11.40;1.00
12438;DHT22;6283;51.330;12.374;2022-09-27T05:49:41;11.60;1.00
12438;DHT22;6283;51.330;12.374;2022-09-27T05:52:07;11.50;1.00
12438;DHT22;6283;51.330;12.374;2022-09-27T05:54:33;11.50;1.00
12438;DHT22;6283;51.330;12.374;2022-09-27T05:56:58;11.70;1.00
12438;DHT22;6283;51.330;12.374;2022-09-27T05:59:25;11.70;1.00
12438;DHT22;6283;51.330;12.374;2022-09-27T06:01:51;11.60;1.00
12438;DHT22;6283;51.330;12.374;2022-09-27T06:04:18;11.60;1.00
12438;DHT22;6283;51.330;12.374;2022-09-27T06:06:44;11.90;1.00
12438;DHT22;6283;51.330;12.374;2022-09-27T06:09:10;11.80;1.00
12438;DHT22;6283;51.330;12.374;2022-09-27T06:11:36;11.60;1.00
12438;DHT22;6283;51.330;12.374;2022-09-27T06:14:01;11.70;1.00
12438;DHT22;6283;51.330;12.374;2022-09-27T06:16:27;11.90;1.00
12438;DHT22;6283;51.330;12.374;2022-09-27T06:18:52;11.80;1.00
12438;DHT22;6283;51.330;12.374;2022-09-27T06:21:18;11.80;1.00
12438;DHT22;6283;51.330;12.374;2022-09-27T06:23:44;11.80;1.00
12438;DHT22;6283;51.330;12.374;2022-09-27T06:26:10;12.00;1.00
12438;DHT22;6283;51.330;12.374;2022-09-27T06:28:36;11.90;1.00
12438;DHT22;6283;51.330;12.374;2022-09-27T06:31:04;11.80;1.00
12438;DHT22;6283;51.330;12.374;2022-09-27T06:33:31;11.90;1.00
12438;DHT22;6283;51.330;12.374;2022-09-27T06:36:01;12.00;1.00
12438;DHT22;6283;51.330;12.374;2022-09-27T06:38:27;11.90;1.00
12438;DHT22;6283;51.330;12.374;2022-09-27T06:40:52;11.80;1.00
12438;DHT22;6283;51.330;12.374;2022-09-27T06:43:19;11.90;1.00
12438;DHT22;6283;51.330;12.374;2022-09-27T06:45:45;11.80;1.00
12438;DHT22;6283;51.330;12.374;2022-09-27T06:48:13;12.00;1.00
12438;DHT22;6283;51.330;12.374;2022-09-27T06:50:43;11.80;1.00
12438;DHT22;6283;51.330;12.374;2022-09-27T06:53:10;11.90;1.00
12438;DHT22;6283;51.330;12.374;2022-09-27T06:55:37;11.90;1.00
12438;DHT22;6283;51.330;12.374;2022-09-27T06:58:03;11.90;1.00
12438;DHT22;6283;51.330;12.374;2022-09-27T07:00:51;11.80;1.00
12438;DHT22;6283;51.330;12.374;2022-09-27T07:03:21;11.80;1.00
12438;DHT22;6283;51.330;12.374;2022-09-27T07:05:55;11.90;1.00
12438;DHT22;6283;51.330;12.374;2022-09-27T07:08:21;12.00;1.00
12438;DHT22;6283;51.330;12.374;2022-09-27T07:10:47;12.00;1.00
12438;DHT22;6283;51.330;12.374;2022-09-27T07:13:14;11.80;1.00
12438;DHT22;6283;51.330;12.374;2022-09-27T07:15:40;11.90;1.00
12438;DHT22;6283;51.330;12.374;2022-09-27T07:18:07;12.00;1.00
12438;DHT22;6283;51.330;12.374;2022-09-27T07:20:33;12.10;1.00
12438;DHT22;6283;51.330;12.374;2022-09-27T07:23:03;12.00;1.00
12438;DHT22;6283;51.330;12.374;2022-09-27T07:25:30;12.00;1.00
12438;DHT22;6283;51.330;12.374;2022-09-27T07:28:00;12.10;1.00
12438;DHT22;6283;51.330;12.374;2022-09-27T07:30:26;12.00;1.00
12438;DHT22;6283;51.330;12.374;2022-09-27T07:32:59;12.00;1.00
12438;DHT22;6283;51.330;12.374;2022-09-27T07:35:26;12.10;1.00
12438;DHT22;6283;51.330;12.374;2022-09-27T07:37:52;12.20;1.00
12438;DHT22;6283;51.330;12.374;2022-09-27T07:40:18;12.10;1.00
12438;DHT22;6283;51.330;12.374;2022-09-27T07:42:44;12.30;1.00
12438;DHT22;6283;51.330;12.374;2022-09-27T07:45:10;12.30;1.00
12438;DHT22;6283;51.330;12.374;2022-09-27T07:47:39;12.00;1.00
12438;DHT22;6283;51.330;12.374;2022-09-27T07:50:07;12.20;1.00
12438;DHT22;6283;51.330;12.374;2022-09-27T07:52:45;12.20;1.00
12438;DHT22;6283;51.330;12.374;2022-09-27T07:55:12;12.10;1.00
12438;DHT22;6283;51.330;12.374;2022-09-27T07:57:39;12.40;1.00
12438;DHT22;6283;51.330;12.374;2022-09-27T08:00:08;12.20;1.00
12438;DHT22;6283;51.330;12.374;2022-09-27T08:02:34;12.20;1.00
12438;DHT22;6283;51.330;12.374;2022-09-27T08:05:00;12.40;1.00
12438;DHT22;6283;51.330;12.374;2022-09-27T08:07:27;12.20;1.00
12438;DHT22;6283;51.330;12.374;2022-09-27T08:09:52;12.30;1.00
12438;DHT22;6283;51.330;12.374;2022-09-27T08:12:18;12.50;1.00
12438;DHT22;6283;51.330;12.374;2022-09-27T08:14:48;12.50;1.00
12438;DHT22;6283;51.330;12.374;2022-09-27T08:17:14;12.50;1.00
12438;DHT22;6283;51.330;12.374;2022-09-27T08:19:40;12.70;1.00
12438;DHT22;6283;51.330;12.374;2022-09-27T08:22:08;12.60;1.00
12438;DHT22;6283;51.330;12.374;2022-09-27T08:24:34;12.70;1.00
12438;DHT22;6283;51.330;12.374;2022-09-27T08:27:01;12.50;1.00
12438;DHT22;6283;51.330;12.374;2022-09-27T08:29:27;12.50;1.00
12438;DHT22;6283;51.330;12.374;2022-09-27T08:31:52;12.30;1.00
12438;DHT22;6283;51.330;12.374;2022-09-27T08:34:21;12.60;1.00
12438;DHT22;6283;51.330;12.374;2022-09-27T08:36:47;12.30;1.00
12438;DHT22;6283;51.330;12.374;2022-09-27T08:39:13;12.50;1.00
12438;DHT22;6283;51.330;12.374;2022-09-27T08:41:42;12.10;1.00
12438;DHT22;6283;51.330;12.374;2022-09-27T08:49:35;12.10;1.00
12438;DHT22;6283;51.330;12.374;2022-09-27T08:52:05;11.80;1.00
12438;DHT22;6283;51.330;12.374;2022-09-27T08:54:32;11.70;1.00
12438;DHT22;6283;51.330;12.374;2022-09-27T08:57:07;12.00;1.00
12438;DHT22;6283;51.330;12.374;2022-09-27T09:00:01;12.00;1.00
12438;DHT22;6283;51.330;12.374;2022-09-27T09:02:28;11.80;1.00
12438;DHT22;6283;51.330;12.374;2022-09-27T09:04:57;11.70;1.00
12438;DHT22;6283;51.330;12.374;2022-09-27T09:19:31;11.90;1.00
12438;DHT22;6283;51.330;12.374;2022-09-27T09:22:25;11.80;1.00
12438;DHT22;6283;51.330;12.374;2022-09-27T09:33:24;11.80;1.00
12438;DHT22;6283;51.330;12.374;2022-09-27T09:40:59;12.10;1.00
12438;DHT22;6283;51.330;12.374;2022-09-27T09:43:38;12.10;1.00
12438;DHT22;6283;51.330;12.374;2022-09-27T09:46:15;12.00;1.00
12438;DHT22;6283;51.330;12.374;2022-09-27T09:49:24;11.80;1.00
12438;DHT22;6283;51.330;12.374;2022-09-27T09:51:51;11.80;1.00
12438;DHT22;6283;51.330;12.374;2022-09-27T09:54:42;11.50;1.00
12438;DHT22;6283;51.330;12.374;2022-09-27T09:57:23;11.40;1.00
12438;DHT22;6283;51.330;12.374;2022-09-27T10:00:22;11.40;1.00
12438;DHT22;6283;51.330;12.374;2022-09-27T10:02:52;11.10;1.00
12438;DHT22;6283;51.330;12.374;2022-09-27T10:05:20;11.00;1.00
12438;DHT22;6283;51.330;12.374;2022-09-27T10:07:48;11.10;1.00
12438;DHT22;6283;51.330;12.374;2022-09-27T10:10:16;11.00;1.00
12438;DHT22;6283;51.330;12.374;2022-09-27T10:12:43;11.30;1.00
12438;DHT22;6283;51.330;12.374;2022-09-27T10:15:17;11.00;1.00
12438;DHT22;6283;51.330;12.374;2022-09-27T10:17:49;11.00;1.00
12438;DHT22;6283;51.330;12.374;2022-09-27T10:20:37;11.00;1.00
12438;DHT22;6283;51.330;12.374;2022-09-27T10:23:10;11.00;1.00
12438;DHT22;6283;51.330;12.374;2022-09-27T10:28:38;10.80;1.00
12438;DHT22;6283;51.330;12.374;2022-09-27T10:31:09;10.80;1.00
12438;DHT22;6283;51.330;12.374;2022-09-27T10:33:54;11.00;1.00
12438;DHT22;6283;51.330;12.374;2022-09-27T10:36:29;11.00;1.00
12438;DHT22;6283;51.330;12.374;2022-09-27T10:38:57;11.10;1.00
12438;DHT22;6283;51.330;12.374;2022-09-27T10:41:30;11.00;1.00
12438;DHT22;6283;51.330;12.374;2022-09-27T10:43:56;11.00;1.00
12438;DHT22;6283;51.330;12.374;2022-09-27T10:46:27;11.10;1.00
12438;DHT22;6283;51.330;12.374;2022-09-27T10:49:40;11.10;1.00
12438;DHT22;6283;51.330;12.374;2022-09-27T10:52:26;11.40;1.00
12438;DHT22;6283;51.330;12.374;2022-09-27T10:57:49;11.40;1.00
12438;DHT22;6283;51.330;12.374;2022-09-27T11:00:25;11.20;1.00
12438;DHT22;6283;51.330;12.374;2022-09-27T11:02:56;11.30;1.00
12438;DHT22;6283;51.330;12.374;2022-09-27T11:07:55;11.60;1.00
12438;DHT22;6283;51.330;12.374;2022-09-27T11:10:33;11.20;1.00
12438;DHT22;6283;51.330;12.374;2022-09-27T11:18:14;11.70;1.00
12438;DHT22;6283;51.330;12.374;2022-09-27T11:21:09;11.80;1.00
12438;DHT22;6283;51.330;12.374;2022-09-27T11:23:42;11.90;1.00
12438;DHT22;6283;51.330;12.374;2022-09-27T11:31:47;12.30;1.00
12438;DHT22;6283;51.330;12.374;2022-09-27T11:37:29;12.30;1.00
12438;DHT22;6283;51.330;12.374;2022-09-27T11:40:25;12.30;1.00
12438;DHT22;6283;51.330;12.374;2022-09-27T11:59:33;11.10;1.00
12438;DHT22;6283;51.330;12.374;2022-09-27T12:11:04;11.50;1.00
12438;DHT22;6283;51.330;12.374;2022-09-27T12:13:37;11.80;1.00
12438;DHT22;6283;51.330;12.374;2022-09-27T12:16:05;11.90;1.00
12438;DHT22;6283;51.330;12.374;2022-09-27T12:18:38;11.80;1.00
12438;DHT22;6283;51.330;12.374;2022-09-27T12:21:05;11.90;1.00
12438;DHT22;6283;51.330;12.374;2022-09-27T12:23:46;12.00;1.00
12438;DHT22;6283;51.330;12.374;2022-09-27T12:29:25;12.10;1.00
12438;DHT22;6283;51.330;12.374;2022-09-27T12:32:16;12.40;1.00
12438;DHT22;6283;51.330;12.374;2022-09-27T12:35:01;12.20;1.00
12438;DHT22;6283;51.330;12.374;2022-09-27T12:40:29;12.70;1.00
12438;DHT22;6283;51.330;12.374;2022-09-27T12:45:57;12.60;1.00
12438;DHT22;6283;51.330;12.374;2022-09-27T12:48:55;12.90;1.00
12438;DHT22;6283;51.330;12.374;2022-09-27T12:51:36;13.20;1.00
12438;DHT22;6283;51.330;12.374;2022-09-27T13:05:28;14.50;1.00
12438;DHT22;6283;51.330;12.374;2022-09-27T13:13:17;14.10;1.00
12438;DHT22;6283;51.330;12.374;2022-09-27T13:15:46;14.00;1.00
12438;DHT22;6283;51.330;12.374;2022-09-27T13:35:33;14.30;1.00
12438;DHT22;6283;51.330;12.374;2022-09-27T13:37:59;14.20;1.00
12438;DHT22;6283;51.330;12.374;2022-09-27T13:49:25;14.80;1.00
12438;DHT22;6283;51.330;12.374;2022-09-27T13:51:44;15.20;1.00
12438;DHT22;6283;51.330;12.374;2022-09-27T13:54:35;15.50;1.00
12438;DHT22;6283;51.330;12.374;2022-09-27T13:57:01;15.60;1.00
12438;DHT22;6283;51.330;12.374;2022-09-27T13:59:40;15.40;1.00
12438;DHT22;6283;51.330;12.374;2022-09-27T14:04:46;15.10;1.00
12438;DHT22;6283;51.330;12.374;2022-09-27T14:07:18;14.70;1.00
12438;DHT22;6283;51.330;12.374;2022-09-27T14:09:50;14.60;1.00
12438;DHT22;6283;51.330;12.374;2022-09-27T14:12:23;14.40;1.00
12438;DHT22;6283;51.330;12.374;2022-09-27T14:14:53;14.20;1.00
12438;DHT22;6283;51.330;12.374;2022-09-27T14:17:20;13.90;1.00
12438;DHT22;6283;51.330;12.374;2022-09-27T14:19:45;13.90;1.00
12438;DHT22;6283;51.330;12.374;2022-09-27T14:22:14;13.80;1.00
12438;DHT22;6283;51.330;12.374;2022-09-27T14:30:12;13.20;1.00
12438;DHT22;6283;51.330;12.374;2022-09-27T14:32:49;13.20;1.00
12438;DHT22;6283;51.330;12.374;2022-09-27T14:35:19;12.90;1.00
12438;DHT22;6283;51.330;12.374;2022-09-27T14:38:07;13.00;1.00
12438;DHT22;6283;51.330;12.374;2022-09-27T14:43:19;14.00;1.00
12438;DHT22;6283;51.330;12.374;2022-09-27T14:45:47;14.60;1.00
12438;DHT22;6283;51.330;12.374;2022-09-27T14:48:27;14.90;1.00
12438;DHT22;6283;51.330;12.374;2022-09-27T14:50:55;15.40;1.00
12438;DHT22;6283;51.330;12.374;2022-09-27T14:53:24;15.50;1.00
12438;DHT22;6283;51.330;12.374;2022-09-27T14:55:49;15.40;1.00
12438;DHT22;6283;51.330;12.374;2022-09-27T14:58:20;15.70;1.00
12438;DHT22;6283;51.330;12.374;2022-09-27T15:00:47;15.70;1.00
12438;DHT22;6283;51.330;12.374;2022-09-27T15:03:26;15.70;1.00
12438;DHT22;6283;51.330;12.374;2022-09-27T15:05:52;15.60;1.00
12438;DHT22;6283;51.330;12.374;2022-09-27T15:08:22;15.80;1.00
12438;DHT22;6283;51.330;12.374;2022-09-27T15:10:48;15.40;1.00
12438;DHT22;6283;51.330;12.374;2022-09-27T15:13:16;15.20;1.00
12438;DHT22;6283;51.330;12.374;2022-09-27T15:15:43;14.90;1.00
12438;DHT22;6283;51.330;12.374;2022-09-27T15:18:48;14.60;1.00
12438;DHT22;6283;51.330;12.374;2022-09-27T15:21:28;14.50;1.00
12438;DHT22;6283;51.330;12.374;2022-09-27T15:23:54;14.40;1.00
12438;DHT22;6283;51.330;12.374;2022-09-27T15:26:41;14.50;1.00
12438;DHT22;6283;51.330;12.374;2022-09-27T15:29:22;14.30;1.00
12438;DHT22;6283;51.330;12.374;2022-09-27T15:32:22;14.10;1.00
12438;DHT22;6283;51.330;12.374;2022-09-27T15:34:48;13.90;1.00
12438;DHT22;6283;51.330;12.374;2022-09-27T15:37:37;13.80;1.00
12438;DHT22;6283;51.330;12.374;2022-09-27T15:42:57;14.10;1.00
12438;DHT22;6283;51.330;12.374;2022-09-27T15:45:30;14.10;1.00
12438;DHT22;6283;51.330;12.374;2022-09-27T15:48:12;14.10;1.00
12438;DHT22;6283;51.330;12.374;2022-09-27T15:50:38;14.10;1.00
12438;DHT22;6283;51.330;12.374;2022-09-27T15:53:05;14.10;1.00
12438;DHT22;6283;51.330;12.374;2022-09-27T15:55:33;13.60;1.00
12438;DHT22;6283;51.330;12.374;2022-09-27T15:58:07;14.00;1.00
12438;DHT22;6283;51.330;12.374;2022-09-27T16:00:56;13.60;1.00
12438;DHT22;6283;51.330;12.374;2022-09-27T16:03:22;13.60;1.00
12438;DHT22;6283;51.330;12.374;2022-09-27T16:05:48;13.50;1.00
12438;DHT22;6283;51.330;12.374;2022-09-27T16:08:14;13.40;1.00
12438;DHT22;6283;51.330;12.374;2022-09-27T16:11:00;13.20;1.00
12438;DHT22;6283;51.330;12.374;2022-09-27T16:13:27;13.50;1.00
12438;DHT22;6283;51.330;12.374;2022-09-27T16:15:53;13.40;1.00
12438;DHT22;6283;51.330;12.374;2022-09-27T16:18:18;13.20;1.00
12438;DHT22;6283;51.330;12.374;2022-09-27T16:20:44;13.10;1.00
12438;DHT22;6283;51.330;12.374;2022-09-27T16:23:10;13.20;1.00
12438;DHT22;6283;51.330;12.374;2022-09-27T16:25:35;13.10;1.00
12438;DHT22;6283;51.330;12.374;2022-09-27T16:28:02;13.10;1.00
12438;DHT22;6283;51.330;12.374;2022-09-27T16:30:28;13.10;1.00
12438;DHT22;6283;51.330;12.374;2022-09-27T16:32:54;13.00;1.00
12438;DHT22;6283;51.330;12.374;2022-09-27T16:35:21;12.70;1.00
12438;DHT22;6283;51.330;12.374;2022-09-27T16:37:47;12.90;1.00
12438;DHT22;6283;51.330;12.374;2022-09-27T16:40:13;12.90;1.00
12438;DHT22;6283;51.330;12.374;2022-09-27T16:42:39;12.90;1.00
12438;DHT22;6283;51.330;12.374;2022-09-27T16:45:06;12.70;1.00
12438;DHT22;6283;51.330;12.374;2022-09-27T16:47:32;12.80;1.00
12438;DHT22;6283;51.330;12.374;2022-09-27T16:49:58;12.60;1.00
12438;DHT22;6283;51.330;12.374;2022-09-27T16:52:42;12.70;1.00
12438;DHT22;6283;51.330;12.374;2022-09-27T16:55:12;12.30;1.00
12438;DHT22;6283;51.330;12.374;2022-09-27T16:57:38;12.30;1.00
12438;DHT22;6283;51.330;12.374;2022-09-27T17:00:04;12.70;1.00
12438;DHT22;6283;51.330;12.374;2022-09-27T17:02:30;12.30;1.00
12438;DHT22;6283;51.330;12.374;2022-09-27T17:04:57;12.20;1.00
12438;DHT22;6283;51.330;12.374;2022-09-27T17:07:22;12.30;1.00
12438;DHT22;6283;51.330;12.374;2022-09-27T17:09:48;12.20;1.00
12438;DHT22;6283;51.330;12.374;2022-09-27T17:12:14;12.60;1.00
12438;DHT22;6283;51.330;12.374;2022-09-27T17:14:40;12.20;1.00
12438;DHT22;6283;51.330;12.374;2022-09-27T17:17:06;12.40;1.00
12438;DHT22;6283;51.330;12.374;2022-09-27T17:19:32;12.40;1.00
12438;DHT22;6283;51.330;12.374;2022-09-27T17:21:58;12.00;1.00
12438;DHT22;6283;51.330;12.374;2022-09-27T17:24:24;11.90;1.00
12438;DHT22;6283;51.330;12.374;2022-09-27T17:26:50;11.90;1.00
12438;DHT22;6283;51.330;12.374;2022-09-27T17:29:16;12.00;1.00
12438;DHT22;6283;51.330;12.374;2022-09-27T17:31:42;11.70;1.00
12438;DHT22;6283;51.330;12.374;2022-09-27T17:34:10;11.80;1.00
12438;DHT22;6283;51.330;12.374;2022-09-27T17:36:38;11.50;1.00
12438;DHT22;6283;51.330;12.374;2022-09-27T17:39:07;11.50;1.00
12438;DHT22;6283;51.330;12.374;2022-09-27T17:41:34;11.50;1.00
12438;DHT22;6283;51.330;12.374;2022-09-27T17:44:01;11.50;1.00
12438;DHT22;6283;51.330;12.374;2022-09-27T17:46:32;11.40;1.00
12438;DHT22;6283;51.330;12.374;2022-09-27T17:48:59;11.30;1.00
12438;DHT22;6283;51.330;12.374;2022-09-27T17:51:49;11.30;1.00
12438;DHT22;6283;51.330;12.374;2022-09-27T17:54:16;11.40;1.00
12438;DHT22;6283;51.330;12.374;2022-09-27T17:56:45;11.20;1.00
12438;DHT22;6283;51.330;12.374;2022-09-27T17:59:12;11.30;1.00
12438;DHT22;6283;51.330;12.374;2022-09-27T18:01:40;11.10;1.00
12438;DHT22;6283;51.330;12.374;2022-09-27T18:04:08;11.10;1.00
12438;DHT22;6283;51.330;12.374;2022-09-27T18:06:37;11.00;1.00
12438;DHT22;6283;51.330;12.374;2022-09-27T18:09:04;10.90;1.00
12438;DHT22;6283;51.330;12.374;2022-09-27T18:11:30;11.00;1.00
12438;DHT22;6283;51.330;12.374;2022-09-27T18:13:58;10.90;1.00
12438;DHT22;6283;51.330;12.374;2022-09-27T18:16:25;11.00;1.00
12438;DHT22;6283;51.330;12.374;2022-09-27T18:18:54;11.00;1.00
12438;DHT22;6283;51.330;12.374;2022-09-27T18:21:21;10.80;1.00
12438;DHT22;6283;51.330;12.374;2022-09-27T18:23:49;11.00;1.00
12438;DHT22;6283;51.330;12.374;2022-09-27T18:26:19;10.80;1.00
12438;DHT22;6283;51.330;12.374;2022-09-27T18:28:49;10.90;1.00
12438;DHT22;6283;51.330;12.374;2022-09-27T18:31:17;10.80;1.00
12438;DHT22;6283;51.330;12.374;2022-09-27T18:33:43;10.90;1.00
12438;DHT22;6283;51.330;12.374;2022-09-27T18:36:17;10.70;1.00
12438;DHT22;6283;51.330;12.374;2022-09-27T18:38:43;10.70;1.00
12438;DHT22;6283;51.330;12.374;2022-09-27T18:41:10;10.90;1.00
12438;DHT22;6283;51.330;12.374;2022-09-27T18:43:36;10.80;1.00
12438;DHT22;6283;51.330;12.374;2022-09-27T18:46:04;10.80;1.00
12438;DHT22;6283;51.330;12.374;2022-09-27T18:48:31;10.60;1.00
12438;DHT22;6283;51.330;12.374;2022-09-27T18:51:19;10.60;1.00
12438;DHT22;6283;51.330;12.374;2022-09-27T18:53:43;10.90;1.00
12438;DHT22;6283;51.330;12.374;2022-09-27T18:56:16;10.70;1.00
12438;DHT22;6283;51.330;12.374;2022-09-27T18:58:43;10.70;1.00